createdAt,value
2023-05-05T05:00:44.456Z,6.20
2023-05-05T05:03:11.949Z,11.00
2023-05-05T05:05:38.928Z,11.05
2023-05-05T05:08:06.670Z,6.78
2023-05-05T05:10:33.713Z,6.90
2023-05-05T05:13:02.269Z,6.25
2023-05-05T05:15:29.032Z,3.83
2023-05-05T05:17:56.305Z,6.47
2023-05-05T05:20:24.397Z,6.70
2023-05-05T05:22:51.917Z,6.18
2023-05-05T05:25:20.623Z,7.28
2023-05-05T05:28:01.974Z,3.85
2023-05-05T05:30:37.050Z,4.18
2023-05-05T05:33:06.565Z,9.88
2023-05-05T05:35:33.182Z,7.05
2023-05-05T05:38:00.904Z,7.25
2023-05-05T05:40:27.508Z,7.13
2023-05-05T05:42:55.676Z,8.13
2023-05-05T05:45:27.085Z,5.53
2023-05-05T05:47:54.402Z,9.73
2023-05-05T05:50:21.625Z,9.40
2023-05-05T05:52:48.942Z,7.70
2023-05-05T05:55:15.724Z,5.95
2023-05-05T05:57:43.255Z,14.18
2023-05-05T06:00:11.634Z,11.77
2023-05-05T06:02:38.885Z,18.23
2023-05-05T06:05:09.613Z,9.95
2023-05-05T06:07:37.343Z,8.85
2023-05-05T06:10:25.159Z,7.50
2023-05-05T06:12:54.189Z,7.43
2023-05-05T06:15:20.978Z,10.15
2023-05-05T06:20:29.478Z,7.85
2023-05-05T06:22:56.741Z,9.30
2023-05-05T06:25:24.146Z,11.18
2023-05-05T06:27:52.255Z,8.82
2023-05-05T06:30:18.795Z,11.32
2023-05-05T06:32:46.119Z,10.82
2023-05-05T06:35:12.675Z,10.65
2023-05-05T06:37:40.135Z,9.10
2023-05-05T06:40:07.977Z,11.85
2023-05-05T06:42:36.252Z,9.32
2023-05-05T06:45:07.275Z,12.77
2023-05-05T06:47:34.855Z,12.05
2023-05-05T06:50:01.564Z,13.95
2023-05-05T06:52:28.610Z,9.15
2023-05-05T06:54:55.087Z,8.48
2023-05-05T06:57:22.289Z,12.38
2023-05-05T06:59:48.860Z,10.35
2023-05-05T07:02:16.115Z,9.80
2023-05-05T07:04:43.991Z,9.95
2023-05-05T07:07:11.196Z,12.07
2023-05-05T07:09:37.774Z,11.57
2023-05-05T07:12:05.122Z,12.60
2023-05-05T07:14:31.697Z,11.55
2023-05-05T07:16:58.983Z,11.98
2023-05-05T07:19:25.628Z,12.05
2023-05-05T07:21:52.815Z,14.20
2023-05-05T07:24:19.437Z,19.10
2023-05-05T07:26:46.835Z,14.57
2023-05-05T07:29:13.510Z,14.05
2023-05-05T07:31:40.892Z,17.50
2023-05-05T07:34:07.571Z,15.00
2023-05-05T07:36:34.852Z,17.63
2023-05-05T07:39:01.661Z,15.05
2023-05-05T07:41:28.937Z,18.33
2023-05-05T07:43:55.562Z,13.70
2023-05-05T07:46:22.719Z,15.48
2023-05-05T07:48:49.329Z,14.77
2023-05-05T07:51:16.554Z,17.88
2023-05-05T07:53:43.280Z,15.75
2023-05-05T07:56:10.820Z,15.18
2023-05-05T07:58:37.364Z,14.48
2023-05-05T08:01:06.777Z,17.88
2023-05-05T08:03:33.534Z,16.40
2023-05-05T08:06:08.869Z,18.10
2023-05-05T08:08:35.678Z,18.02
2023-05-05T08:11:03.241Z,20.13
2023-05-05T08:13:32.602Z,19.65
2023-05-05T08:18:26.993Z,20.45
2023-05-05T08:20:54.900Z,18.90
2023-05-05T08:23:21.800Z,19.17
2023-05-05T08:25:50.159Z,16.98
2023-05-05T08:28:16.740Z,18.98
2023-05-05T08:30:44.321Z,19.25
2023-05-05T08:33:11.092Z,18.58
2023-05-05T08:35:38.401Z,19.05
2023-05-05T08:38:05.010Z,19.30
2023-05-05T08:40:38.406Z,17.35
2023-05-05T08:43:05.573Z,15.68
2023-05-05T08:48:35.265Z,16.38
2023-05-05T08:53:47.881Z,22.67
2023-05-05T08:56:18.413Z,18.48
2023-05-05T08:58:46.513Z,15.75
2023-05-05T09:01:14.686Z,17.63
2023-05-05T09:03:41.397Z,16.38
2023-05-05T09:06:09.891Z,16.40
2023-05-05T09:08:40.105Z,20.40
2023-05-05T09:11:07.402Z,17.27
2023-05-05T09:13:34.127Z,17.55
2023-05-05T09:16:01.448Z,13.20
2023-05-05T09:18:44.612Z,15.00
2023-05-05T09:21:28.026Z,14.60
2023-05-05T09:24:11.734Z,16.95
2023-05-05T09:26:42.290Z,18.98
2023-05-05T09:29:09.412Z,20.40
2023-05-05T09:31:37.920Z,15.32
2023-05-05T09:34:15.919Z,17.88
2023-05-05T09:36:49.630Z,14.65
2023-05-05T09:39:20.005Z,16.13
2023-05-05T09:41:47.556Z,23.48
2023-05-05T09:44:16.093Z,16.58
2023-05-05T09:46:53.459Z,17.15
2023-05-05T09:49:26.808Z,12.80
2023-05-05T09:51:55.626Z,18.77
2023-05-05T09:54:27.331Z,14.47
2023-05-05T09:56:55.738Z,15.07
2023-05-05T09:59:23.120Z,16.35
2023-05-05T10:01:51.604Z,15.93
2023-05-05T10:04:25.062Z,13.85
2023-05-05T10:06:52.441Z,12.57
2023-05-05T10:09:19.130Z,10.48
2023-05-05T10:11:47.873Z,9.65
2023-05-05T10:14:15.900Z,13.63
2023-05-05T10:16:51.083Z,12.57
2023-05-05T10:19:22.970Z,9.07
2023-05-05T10:21:59.817Z,9.07
2023-05-05T10:24:35.836Z,9.38
2023-05-05T10:27:05.063Z,7.68
2023-05-05T10:30:00.237Z,7.35
2023-05-05T10:32:56.394Z,4.82
2023-05-05T10:35:24.858Z,3.95
2023-05-05T10:37:52.670Z,4.30
2023-05-05T10:40:22.410Z,7.07
2023-05-05T10:45:18.264Z,3.80
2023-05-05T10:47:45.019Z,5.78
2023-05-05T10:50:21.863Z,4.97
2023-05-05T10:53:11.159Z,8.77
2023-05-05T10:55:48.641Z,6.22
2023-05-05T10:58:46.894Z,6.78
2023-05-05T11:01:33.146Z,8.57
2023-05-05T11:04:18.758Z,5.47
2023-05-05T11:07:14.773Z,7.22
2023-05-05T11:10:15.869Z,6.05
2023-05-05T11:12:52.042Z,7.10
2023-05-05T11:15:29.236Z,5.65
2023-05-05T11:18:40.112Z,6.55
2023-05-05T11:21:20.657Z,6.30
2023-05-05T11:23:56.770Z,6.47
2023-05-05T11:26:50.351Z,6.32
2023-05-05T11:29:17.927Z,6.95
2023-05-05T11:31:47.990Z,7.05
2023-05-05T11:34:29.375Z,8.50
2023-05-05T11:36:59.063Z,6.90
2023-05-05T11:39:33.536Z,6.43
2023-05-05T11:42:28.752Z,7.63
2023-05-05T11:44:56.356Z,7.72
2023-05-05T11:47:23.115Z,8.20
2023-05-05T11:49:50.825Z,6.97
2023-05-05T11:55:05.757Z,5.82
2023-05-05T11:57:32.371Z,5.63
2023-05-05T12:00:02.537Z,4.60
2023-05-05T12:02:31.831Z,3.83
2023-05-05T12:05:00.198Z,5.20
2023-05-05T12:07:33.395Z,6.18
2023-05-05T12:10:01.108Z,6.45
2023-05-05T12:12:38.609Z,5.28
2023-05-05T12:15:06.969Z,5.88
2023-05-05T12:17:44.908Z,4.90
2023-05-05T12:20:13.424Z,6.80
2023-05-05T12:22:40.571Z,4.70
2023-05-05T12:25:09.049Z,3.85
2023-05-05T12:27:35.805Z,6.20
2023-05-05T12:30:14.483Z,7.20
2023-05-05T12:32:41.493Z,5.47
2023-05-05T12:35:10.174Z,6.38
2023-05-05T12:37:37.099Z,3.63
2023-05-05T12:40:06.608Z,8.80
2023-05-05T12:42:38.894Z,3.83
2023-05-05T12:45:08.170Z,6.75
2023-05-05T12:47:36.704Z,6.20
2023-05-05T12:50:03.934Z,3.72
2023-05-05T12:52:46.180Z,3.78
2023-05-05T12:55:13.215Z,6.05
2023-05-05T12:58:00.769Z,5.53
2023-05-05T13:00:29.396Z,4.43
2023-05-05T13:02:56.853Z,6.78
2023-05-05T13:05:34.506Z,6.82
2023-05-05T13:08:01.087Z,4.65
2023-05-05T13:10:31.220Z,3.88
2023-05-05T13:12:58.786Z,2.20
2023-05-05T13:15:26.149Z,3.30
2023-05-05T13:18:03.102Z,2.78
2023-05-05T13:20:29.755Z,3.85
2023-05-05T13:22:57.589Z,4.72
2023-05-05T13:25:24.251Z,4.55
2023-05-05T13:27:51.587Z,5.05
2023-05-05T13:30:18.159Z,3.38
2023-05-05T13:32:45.480Z,3.65
2023-05-05T13:35:14.689Z,2.88
2023-05-05T13:37:44.594Z,3.33
2023-05-05T13:40:13.266Z,3.45
2023-05-05T13:42:40.612Z,3.22
2023-05-05T13:45:07.902Z,3.58
2023-05-05T13:47:35.015Z,3.05
2023-05-05T13:50:01.990Z,4.45
2023-05-05T13:52:31.623Z,2.65
2023-05-05T13:54:59.728Z,3.22
2023-05-05T13:57:27.296Z,3.58
2023-05-05T13:59:53.990Z,3.55
2023-05-05T14:02:21.313Z,2.15
2023-05-05T14:04:47.897Z,5.93
2023-05-05T14:07:15.147Z,2.67
2023-05-05T14:09:41.742Z,3.28
2023-05-05T14:12:09.007Z,3.72
2023-05-05T14:14:36.041Z,3.47
2023-05-05T14:17:03.388Z,2.42
2023-05-05T14:19:30.056Z,3.13
2023-05-05T14:21:57.713Z,2.58
2023-05-05T14:24:24.394Z,3.55
2023-05-05T14:26:51.614Z,2.97
2023-05-05T14:29:18.224Z,6.13
2023-05-05T14:31:45.560Z,4.35
2023-05-05T14:34:12.184Z,3.08
2023-05-05T14:36:39.418Z,4.10
2023-05-05T14:39:05.983Z,7.20
2023-05-05T14:41:33.195Z,12.82
2023-05-05T14:43:59.754Z,10.98
2023-05-05T14:46:27.686Z,9.25
2023-05-05T14:48:54.323Z,6.13
2023-05-05T14:51:21.548Z,6.95
2023-05-05T14:53:48.210Z,4.93
2023-05-05T14:56:17.445Z,4.00
2023-05-05T14:58:44.044Z,3.22
2023-05-05T15:01:11.351Z,4.50
2023-05-05T15:03:38.260Z,6.13
2023-05-05T15:06:05.828Z,3.00
2023-05-05T15:08:32.432Z,3.38
2023-05-05T15:10:59.688Z,4.15
2023-05-05T15:13:26.787Z,3.30
2023-05-05T15:15:53.767Z,4.10
2023-05-05T15:18:20.490Z,3.42
2023-05-05T15:20:47.723Z,4.05
2023-05-05T15:23:14.565Z,5.05
2023-05-05T15:25:42.100Z,6.63
2023-05-05T15:28:08.738Z,4.22
2023-05-05T15:30:36.054Z,4.90
2023-05-05T15:33:02.701Z,5.75
2023-05-05T15:35:29.944Z,6.68
2023-05-05T15:37:56.568Z,7.35
2023-05-05T15:40:23.721Z,3.33
2023-05-05T15:42:51.122Z,3.08
2023-05-05T15:45:18.108Z,4.85
2023-05-05T15:47:45.858Z,3.80
2023-05-05T15:50:12.897Z,3.13
2023-05-05T15:52:40.253Z,2.67
2023-05-05T15:55:07.861Z,4.25
2023-05-05T15:57:35.400Z,3.40
2023-05-05T16:00:02.371Z,5.45
2023-05-05T16:02:34.446Z,2.67
2023-05-05T16:05:01.493Z,3.13
2023-05-05T16:07:28.075Z,3.80
2023-05-05T16:09:55.057Z,4.20
2023-05-05T16:12:22.406Z,5.45
2023-05-05T16:14:49.111Z,2.33
2023-05-05T16:17:16.035Z,10.93
2023-05-05T16:19:42.613Z,4.93
2023-05-05T16:22:09.828Z,5.20
2023-05-05T16:24:36.514Z,3.83
2023-05-05T16:27:04.517Z,8.30
2023-05-05T16:29:31.184Z,6.75
2023-05-05T16:31:58.536Z,2.90
2023-05-05T16:34:25.197Z,3.35
2023-05-05T16:36:53.666Z,5.68
2023-05-05T16:39:20.290Z,4.53
2023-05-05T16:41:47.519Z,2.90
2023-05-05T16:44:14.431Z,3.63
2023-05-05T16:46:41.460Z,2.75
2023-05-05T16:49:08.433Z,2.03
2023-05-05T16:51:35.382Z,2.88
2023-05-05T16:54:02.019Z,2.70
2023-05-05T16:56:29.396Z,2.22
2023-05-05T16:58:56.118Z,2.30
2023-05-05T17:01:23.429Z,2.35
2023-05-05T17:03:50.520Z,3.20
2023-05-05T17:06:17.873Z,4.97
2023-05-05T17:08:44.548Z,3.17
2023-05-05T17:11:14.490Z,5.72
2023-05-05T17:16:08.300Z,3.30
2023-05-05T17:18:34.954Z,4.75
2023-05-05T17:21:02.194Z,3.83
2023-05-05T17:23:28.826Z,2.60
2023-05-05T17:25:56.178Z,3.75
2023-05-05T17:28:22.876Z,3.95
2023-05-05T17:30:49.831Z,2.95
2023-05-05T17:33:20.745Z,3.00
2023-05-05T17:35:48.499Z,1.80
2023-05-05T17:38:15.467Z,3.58
2023-05-05T17:40:42.705Z,3.05
2023-05-05T17:43:09.358Z,2.47
2023-05-05T17:45:36.684Z,2.80
2023-05-05T17:48:03.508Z,2.70
2023-05-05T17:50:30.828Z,1.90
2023-05-05T17:52:57.433Z,1.77
2023-05-05T17:55:24.685Z,6.25
2023-05-05T17:57:55.772Z,3.90
2023-05-05T18:00:23.268Z,4.10
2023-05-05T18:02:49.825Z,5.15
2023-05-05T18:05:16.877Z,1.75
2023-05-05T18:07:43.801Z,2.35
2023-05-05T18:10:11.064Z,3.03
2023-05-05T18:12:37.853Z,3.80
2023-05-05T18:15:05.645Z,2.75
2023-05-05T18:17:32.282Z,2.70
2023-05-05T18:19:59.461Z,3.38
2023-05-05T18:22:26.267Z,4.80
2023-05-05T18:24:59.166Z,2.13
2023-05-05T18:27:26.915Z,3.33
2023-05-05T18:29:54.336Z,2.33
2023-05-05T18:32:21.666Z,4.22
2023-05-05T18:34:48.957Z,4.90
2023-05-05T18:37:15.606Z,4.57
2023-05-05T18:39:44.065Z,1.90
2023-05-05T18:42:12.685Z,4.70
2023-05-05T18:44:40.037Z,3.38
2023-05-05T18:47:06.849Z,3.22
2023-05-05T18:49:34.203Z,5.68
2023-05-05T18:52:00.840Z,3.45
2023-05-05T18:54:28.087Z,5.70
2023-05-05T18:56:54.750Z,6.35
2023-05-05T18:59:22.516Z,3.78
2023-05-05T19:01:49.061Z,4.40
2023-05-05T19:04:30.148Z,5.13
2023-05-05T19:06:59.135Z,4.15
2023-05-05T19:09:26.606Z,5.28
2023-05-05T19:11:53.260Z,4.15
2023-05-05T19:14:20.551Z,6.75
2023-05-05T19:16:47.213Z,2.92
2023-05-05T19:19:14.714Z,3.60
2023-05-05T19:21:41.327Z,3.05
2023-05-05T19:24:09.596Z,3.00
2023-05-05T19:26:36.343Z,5.20
2023-05-05T19:29:03.702Z,3.17
2023-05-05T19:31:31.225Z,3.08
2023-05-05T19:34:01.505Z,3.92
2023-05-05T19:36:28.908Z,7.10
2023-05-05T19:38:56.287Z,6.80
2023-05-05T19:41:23.151Z,4.85
2023-05-05T19:43:50.491Z,6.70
2023-05-05T19:46:17.242Z,6.93
2023-05-05T19:48:44.649Z,5.75
2023-05-05T19:51:11.333Z,5.97
2023-05-05T19:53:40.377Z,5.10
2023-05-05T19:56:07.376Z,9.90
2023-05-05T19:58:59.492Z,4.32
2023-05-05T20:01:27.675Z,4.57
2023-05-05T20:03:56.620Z,5.57
2023-05-05T20:06:23.653Z,3.83
2023-05-05T20:08:51.122Z,8.68
2023-05-05T20:11:18.192Z,5.90
2023-05-05T20:13:45.557Z,7.28
2023-05-05T20:16:12.860Z,3.83
2023-05-05T20:18:40.533Z,4.88
2023-05-05T20:21:07.118Z,3.90
2023-05-05T20:23:34.467Z,5.65
2023-05-05T20:26:01.632Z,5.97
2023-05-05T20:28:28.981Z,6.95
